Time;durP1;ratioP1;P1;durP2;ratioP2;P2;SDS_P1;SDS_P2;PMS_P1;PMS_P2;Temp;Humidity;BMP_temperature;BMP_pressure;BME280_temperature;BME280_humidity;BME280_pressure;Samples;Min_cycle;Max_cycle;Signal;HPM_P1;HPM_P2
2022/03/18 00:01:18;;;;;;;7.43;6.13;;;;;;;7.19;100.00;102037.81;5020692;28;20202;-59
2022/03/18 00:03:44;;;;;;;7.57;6.03;;;;;;;7.16;100.00;102036.88;5023064;28;20195;-60
2022/03/18 00:06:10;;;;;;;6.40;5.70;;;;;;;7.13;100.00;102038.47;5024072;28;20315;-57
2022/03/18 00:08:35;;;;;;;9.43;5.90;;;;;;;7.15;100.00;102039.41;5021868;28;20217;-58
2022/03/18 00:11:02;;;;;;;9.17;6.13;;;;;;;7.14;100.00;102046.25;5026524;28;20192;-58
2022/03/18 00:13:27;;;;;;;8.00;6.03;;;;;;;7.15;100.00;102042.00;5019521;28;20192;-59
2022/03/18 00:15:54;;;;;;;7.60;5.70;;;;;;;7.12;100.00;102040.16;5020657;28;20198;-58
2022/03/18 00:18:20;;;;;;;8.53;5.77;;;;;;;7.11;100.00;102040.97;5022298;28;20207;-59
2022/03/18 00:20:45;;;;;;;8.73;5.97;;;;;;;7.10;100.00;102041.84;5022916;28;20205;-59
2022/03/18 00:23:13;;;;;;;7.13;5.50;;;;;;;7.12;100.00;102044.47;5022342;28;20675;-58
2022/03/18 00:25:38;;;;;;;7.63;5.63;;;;;;;7.10;100.00;102039.25;5034237;28;20953;-58
2022/03/18 00:28:04;;;;;;;11.40;5.60;;;;;;;7.10;100.00;102036.69;5028716;28;20301;-59
2022/03/18 00:30:29;;;;;;;10.40;5.50;;;;;;;7.11;100.00;102042.69;5021966;28;20611;-59
2022/03/18 00:32:54;;;;;;;11.90;5.93;;;;;;;7.10;100.00;102044.41;5022487;28;20271;-58
2022/03/18 00:35:20;;;;;;;9.13;6.03;;;;;;;7.08;100.00;102046.06;5019786;28;20192;-58
2022/03/18 00:37:45;;;;;;;7.47;5.73;;;;;;;7.06;100.00;102044.22;5020974;28;20184;-58
2022/03/18 00:40:11;;;;;;;10.37;6.00;;;;;;;7.05;100.00;102056.25;5019482;28;20188;-58
2022/03/18 00:42:37;;;;;;;7.63;5.13;;;;;;;7.07;100.00;102056.28;5019985;28;20216;-58
2022/03/18 00:45:04;;;;;;;7.30;5.37;;;;;;;7.07;100.00;102059.75;5020641;28;20184;-58
2022/03/18 00:52:58;;;;;;;6.77;5.27;;;;;;;7.06;100.00;102060.56;5022798;28;20188;-59
2022/03/18 00:55:23;;;;;;;6.87;5.60;;;;;;;7.06;100.00;102059.69;5020876;28;20192;-59
2022/03/18 00:57:49;;;;;;;11.83;6.03;;;;;;;7.05;100.00;102063.06;5026157;28;20620;-59
2022/03/18 01:00:15;;;;;;;10.20;5.90;;;;;;;7.05;100.00;102056.25;5019515;28;20539;-60
2022/03/18 01:02:40;;;;;;;7.87;5.87;;;;;;;7.05;100.00;102061.41;5020605;28;20211;-58
2022/03/18 01:05:07;;;;;;;8.53;5.60;;;;;;;7.03;100.00;102060.47;5018279;28;20192;-58
2022/03/18 01:07:33;;;;;;;10.50;5.80;;;;;;;7.04;100.00;102051.03;5018473;28;20204;-59
2022/03/18 01:09:58;;;;;;;12.57;6.20;;;;;;;6.99;100.00;102063.75;5020426;28;20188;-57
2022/03/18 01:12:25;;;;;;;8.73;6.00;;;;;;;7.02;100.00;102061.28;5023055;28;20186;-59
2022/03/18 01:14:51;;;;;;;10.77;5.87;;;;;;;7.00;100.00;102066.38;5018237;28;20676;-58
2022/03/18 01:17:17;;;;;;;7.63;5.77;;;;;;;7.01;100.00;102054.38;5019499;28;20230;-58
2022/03/18 01:19:43;;;;;;;8.70;5.70;;;;;;;7.01;100.00;102059.53;5018512;28;20243;-58
2022/03/18 01:22:11;;;;;;;11.67;6.73;;;;;;;7.00;100.00;102065.50;5029972;28;20249;-59
2022/03/18 01:24:37;;;;;;;7.30;5.47;;;;;;;6.97;100.00;102063.72;5017296;28;20189;-58
2022/03/18 01:27:04;;;;;;;9.13;5.67;;;;;;;6.96;100.00;102059.38;5021536;28;20202;-58
2022/03/18 01:29:30;;;;;;;9.07;5.20;;;;;;;6.96;100.00;102064.53;5027657;28;20793;-58
2022/03/18 01:31:55;;;;;;;9.73;5.87;;;;;;;6.96;100.00;102056.81;5018746;28;20188;-58
2022/03/18 01:34:21;;;;;;;11.10;5.90;;;;;;;6.97;100.00;102060.25;5023418;28;20247;-60
2022/03/18 01:36:46;;;;;;;8.53;5.40;;;;;;;6.97;100.00;102067.97;5019217;28;20597;-59
2022/03/18 01:39:12;;;;;;;8.97;5.50;;;;;;;6.95;100.00;102062.78;5021883;28;20211;-58
2022/03/18 01:41:39;;;;;;;8.73;6.10;;;;;;;6.96;100.00;102066.22;5017616;28;20358;-58
2022/03/18 01:44:04;;;;;;;9.13;5.77;;;;;;;6.96;100.00;102061.06;5020958;28;20196;-60
2022/03/18 01:46:29;;;;;;;6.93;5.70;;;;;;;6.93;100.00;102060.97;5019149;28;20208;-58
2022/03/18 01:48:55;;;;;;;8.10;5.90;;;;;;;6.90;100.00;102061.72;5020496;28;21013;-58
2022/03/18 01:51:22;;;;;;;7.93;5.60;;;;;;;6.91;100.00;102066.06;5020733;28;20291;-58
2022/03/18 01:54:44;;;;;;;8.20;5.40;;;;;;;6.92;100.00;102056.66;5021133;28;20192;-59
2022/03/18 01:56:34;;;;;;;8.63;5.63;;;;;;;6.94;100.00;102057.59;5024164;28;20199;-59
2022/03/18 01:58:59;;;;;;;10.40;5.70;;;;;;;6.89;100.00;102067.69;5024520;28;20358;-58
2022/03/18 02:01:24;;;;;;;9.67;6.60;;;;;;;6.86;100.00;102065.03;5026636;28;20192;-59
2022/03/18 02:03:50;;;;;;;9.40;5.90;;;;;;;6.85;100.00;102063.28;5022645;28;20192;-58
2022/03/18 02:06:15;;;;;;;10.23;5.63;;;;;;;6.88;100.00;102060.81;5019332;28;20840;-59
2022/03/18 02:08:44;;;;;;;7.53;5.53;;;;;;;6.90;100.00;102069.44;5019979;28;20222;-58
2022/03/18 02:11:10;;;;;;;8.30;5.50;;;;;;;6.88;100.00;102071.13;5028208;28;20198;-58
2022/03/18 02:13:35;;;;;;;9.60;5.80;;;;;;;6.86;100.00;102065.03;5024821;28;20189;-59
2022/03/18 02:16:03;;;;;;;9.00;5.47;;;;;;;6.85;100.00;102065.84;5031909;28;20663;-59
2022/03/18 02:18:28;;;;;;;11.53;6.13;;;;;;;6.85;100.00;102069.28;5020530;28;20529;-59
2022/03/18 02:20:53;;;;;;;9.33;6.17;;;;;;;6.84;100.00;102067.53;5032329;28;20185;-59
2022/03/18 02:23:19;;;;;;;9.87;5.87;;;;;;;6.84;100.00;102082.13;5023597;28;20689;-58
2022/03/18 02:25:45;;;;;;;10.57;5.27;;;;;;;6.83;100.00;102086.38;5023923;28;20191;-58
2022/03/18 02:28:10;;;;;;;8.60;5.70;;;;;;;6.82;100.00;102081.19;5025436;28;20764;-59
2022/03/18 02:30:36;;;;;;;8.53;6.03;;;;;;;6.81;100.00;102093.16;5020380;28;20658;-59
2022/03/18 02:33:02;;;;;;;8.50;5.33;;;;;;;6.81;100.00;102092.28;5025425;28;20482;-58
2022/03/18 02:35:29;;;;;;;9.07;6.17;;;;;;;6.77;100.00;102087.84;5027517;28;20200;-59
2022/03/18 02:37:58;;;;;;;9.83;5.50;;;;;;;6.77;100.00;102090.44;5026712;28;20628;-59
2022/03/18 02:40:27;;;;;;;7.97;5.30;;;;;;;6.77;100.00;102088.75;5020753;28;20260;-59
2022/03/18 02:42:53;;;;;;;8.30;5.63;;;;;;;6.76;100.00;102091.25;5030131;28;20213;-58
2022/03/18 02:45:19;;;;;;;9.87;5.80;;;;;;;6.74;100.00;102096.34;5025201;28;20529;-60
2022/03/18 02:47:44;;;;;;;8.80;6.17;;;;;;;6.73;100.00;102091.16;5028448;28;20294;-59
2022/03/18 02:50:10;;;;;;;10.57;5.83;;;;;;;6.73;100.00;102101.44;5026163;28;20677;-58
2022/03/18 02:52:36;;;;;;;9.43;6.00;;;;;;;6.70;100.00;102090.22;5031662;28;20185;-59
2022/03/18 02:55:01;;;;;;;12.53;6.57;;;;;;;6.69;100.00;102095.28;5021188;28;20187;-58
2022/03/18 02:57:27;;;;;;;9.40;6.10;;;;;;;6.70;100.00;102090.22;5023245;28;20254;-59
2022/03/18 02:59:52;;;;;;;9.47;5.80;;;;;;;6.70;100.00;102097.06;5027034;28;20680;-59
2022/03/18 03:02:18;;;;;;;7.83;5.43;;;;;;;6.66;100.00;102097.75;5026720;28;20212;-59
2022/03/18 03:10:11;;;;;;;9.67;5.53;;;;;;;6.63;100.00;102098.53;5023729;28;20702;-59
2022/03/18 03:12:40;;;;;;;9.03;5.90;;;;;;;6.64;100.00;102097.72;5025344;28;20180;-59
2022/03/18 03:15:07;;;;;;;11.07;6.33;;;;;;;6.65;100.00;102104.59;5021353;28;20185;-59
2022/03/18 03:17:32;;;;;;;11.77;5.70;;;;;;;6.65;100.00;102114.03;5027613;28;20272;-58
2022/03/18 03:20:01;;;;;;;7.93;5.70;;;;;;;6.66;100.00;102110.63;5028398;28;20258;-58
2022/03/18 03:22:28;;;;;;;8.67;5.33;;;;;;;6.66;100.00;102114.09;5032079;28;20207;-58
2022/03/18 03:24:55;;;;;;;9.53;5.97;;;;;;;6.66;100.00;102105.47;5025113;28;20194;-61
2022/03/18 03:27:20;;;;;;;10.60;6.17;;;;;;;6.65;100.00;102114.03;5021025;28;20179;-63
2022/03/18 03:29:46;;;;;;;9.40;5.70;;;;;;;6.67;100.00;102125.22;5023904;28;20222;-58
2022/03/18 03:32:11;;;;;;;7.07;5.60;;;;;;;6.64;100.00;102120.00;5024779;28;20675;-58
2022/03/18 03:34:36;;;;;;;8.93;5.67;;;;;;;6.65;100.00;102124.34;5025340;28;20194;-58
2022/03/18 03:37:02;;;;;;;8.07;5.50;;;;;;;6.66;100.00;102126.06;5022710;28;20683;-58
2022/03/18 03:39:27;;;;;;;9.07;5.53;;;;;;;6.65;100.00;102126.91;5021775;28;20771;-59
2022/03/18 03:41:53;;;;;;;6.97;5.07;;;;;;;6.66;100.00;102128.63;5032808;28;20514;-60
2022/03/18 03:44:18;;;;;;;9.03;5.80;;;;;;;6.64;100.00;102136.31;5039162;28;20203;-57
2022/03/18 03:46:43;;;;;;;7.77;5.27;;;;;;;6.64;100.00;102138.00;5028510;28;20276;-59
2022/03/18 03:49:09;;;;;;;9.77;5.07;;;;;;;6.62;100.00;102129.34;5023534;28;20286;-59
2022/03/18 03:51:35;;;;;;;10.00;5.37;;;;;;;6.62;100.00;102142.22;5019687;28;20240;-60
2022/03/18 03:54:00;;;;;;;6.33;4.77;;;;;;;6.61;100.00;102145.59;5023808;28;20180;-58
2022/03/18 03:56:25;;;;;;;10.27;5.17;;;;;;;6.58;100.00;102145.50;5023790;28;20264;-59
2022/03/18 03:58:51;;;;;;;7.90;5.10;;;;;;;6.58;100.00;102154.06;5018611;28;20206;-59
2022/03/18 04:01:16;;;;;;;8.43;5.20;;;;;;;6.58;100.00;102154.06;5019625;28;20198;-57
2022/03/18 04:03:42;;;;;;;7.67;5.30;;;;;;;6.56;100.00;102148.88;5021966;28;20197;-61
2022/03/18 04:06:07;;;;;;;8.13;5.60;;;;;;;6.55;100.00;102154.84;5024263;28;20195;-58
2022/03/18 04:08:33;;;;;;;7.23;4.77;;;;;;;6.49;100.00;102167.50;5018199;28;20285;-57
2022/03/18 04:10:58;;;;;;;9.03;4.73;;;;;;;6.51;100.00;102167.53;5019933;28;20731;-60
2022/03/18 04:13:24;;;;;;;11.00;4.93;;;;;;;6.50;100.00;102169.25;5025513;28;20283;-60
2022/03/18 04:15:49;;;;;;;8.37;4.97;;;;;;;6.49;100.00;102189.75;5023964;28;20201;-59
2022/03/18 04:18:14;;;;;;;8.83;5.20;;;;;;;6.49;100.00;102174.31;5022283;28;20278;-59
2022/03/18 04:20:40;;;;;;;6.43;4.57;;;;;;;6.45;100.00;102178.47;5027766;28;20191;-60
2022/03/18 04:23:05;;;;;;;6.07;4.83;;;;;;;6.46;100.00;102185.38;5020872;28;20345;-57
2022/03/18 04:25:30;;;;;;;8.00;4.57;;;;;;;6.45;100.00;102183.59;5021495;28;20199;-58
2022/03/18 04:27:57;;;;;;;9.03;5.30;;;;;;;6.45;100.00;102190.44;5020635;28;20235;-59
2022/03/18 04:30:22;;;;;;;7.47;5.00;;;;;;;6.45;100.00;102181.03;5027750;28;20621;-58
2022/03/18 04:32:47;;;;;;;9.67;4.90;;;;;;;6.45;100.00;102185.28;5029491;28;20235;-58
2022/03/18 04:35:13;;;;;;;8.23;5.00;;;;;;;6.44;100.00;102189.56;5027903;28;20229;-59
2022/03/18 04:37:40;;;;;;;7.77;5.10;;;;;;;6.44;100.00;102194.72;5027825;28;20279;-58
2022/03/18 04:40:06;;;;;;;7.80;5.00;;;;;;;6.39;100.00;102194.53;5022426;28;20182;-59
2022/03/18 04:42:32;;;;;;;10.27;5.67;;;;;;;6.40;100.00;102198.88;5024997;28;20692;-58
2022/03/18 04:44:57;;;;;;;9.13;5.83;;;;;;;6.41;100.00;102189.44;5035347;28;20184;-59
2022/03/18 04:47:23;;;;;;;8.07;5.20;;;;;;;6.39;100.00;102202.25;5034421;28;20198;-58
2022/03/18 04:49:48;;;;;;;9.03;5.50;;;;;;;6.40;100.00;102195.41;5036407;28;20650;-58
2022/03/18 04:52:14;;;;;;;10.47;4.77;;;;;;;6.37;100.00;102195.28;5027055;28;20261;-59
2022/03/18 04:54:39;;;;;;;10.63;4.93;;;;;;;6.39;100.00;102197.13;5036856;28;20648;-59
2022/03/18 04:57:18;;;;;;;11.00;5.20;;;;;;;6.36;100.00;102198.66;5027564;28;20653;-60
2022/03/18 04:59:44;;;;;;;8.90;5.53;;;;;;;6.34;100.00;102206.34;5025810;28;20223;-58
2022/03/18 05:02:13;;;;;;;8.40;4.87;;;;;;;6.35;100.00;102204.66;5022646;28;20218;-58
2022/03/18 05:04:39;;;;;;;7.17;5.33;;;;;;;6.35;100.00;102199.50;5014444;28;20267;-58
2022/03/18 05:07:05;;;;;;;9.23;5.27;;;;;;;6.35;100.00;102202.09;5017505;28;20353;-59
2022/03/18 05:09:31;;;;;;;10.33;4.90;;;;;;;6.31;100.00;102207.91;5017816;28;20218;-58
2022/03/18 05:11:56;;;;;;;8.53;5.10;;;;;;;6.32;100.00;102207.09;5022563;28;20182;-57
2022/03/18 05:14:21;;;;;;;8.40;5.40;;;;;;;6.32;100.00;102213.09;5018417;28;20214;-59
2022/03/18 05:16:47;;;;;;;8.40;5.90;;;;;;;6.34;100.00;102220.91;5022901;28;20200;-59
2022/03/18 05:19:12;;;;;;;10.27;5.10;;;;;;;6.32;100.00;102210.53;5022067;28;20664;-59
2022/03/18 05:21:39;;;;;;;9.47;5.60;;;;;;;6.32;100.00;102220.81;5026295;28;20633;-58
2022/03/18 05:24:06;;;;;;;9.60;5.40;;;;;;;6.33;100.00;102220.00;5027780;28;20645;-59
2022/03/18 05:26:32;;;;;;;8.27;5.10;;;;;;;6.33;100.00;102227.72;5015875;28;20639;-59
2022/03/18 05:28:57;;;;;;;10.13;4.97;;;;;;;6.31;100.00;102225.91;5017015;28;20229;-60
2022/03/18 05:31:24;;;;;;;11.47;5.83;;;;;;;6.28;100.00;102229.22;5027628;28;20191;-59
2022/03/18 05:33:49;;;;;;;7.50;5.30;;;;;;;6.27;100.00;102232.63;5030110;28;20277;-59
2022/03/18 05:36:15;;;;;;;10.00;5.47;;;;;;;6.27;100.00;102239.44;5017912;28;21847;-59
2022/03/18 05:38:40;;;;;;;8.13;5.47;;;;;;;6.30;100.00;102247.31;5021068;28;20651;-60
2022/03/18 05:41:07;;;;;;;7.70;5.40;;;;;;;6.28;100.00;102244.66;5022221;28;20191;-60
2022/03/18 05:43:32;;;;;;;10.77;5.33;;;;;;;6.27;100.00;102253.22;5027757;28;20691;-59
2022/03/18 05:45:58;;;;;;;9.87;6.10;;;;;;;6.26;100.00;102259.16;5022064;28;20215;-60
2022/03/18 05:48:23;;;;;;;8.53;5.10;;;;;;;6.23;100.00;102266.75;5021405;28;20617;-58
2022/03/18 05:50:49;;;;;;;10.77;5.27;;;;;;;6.28;100.00;102260.06;5025298;28;20700;-58
2022/03/18 05:53:14;;;;;;;11.27;5.57;;;;;;;6.27;100.00;102255.78;5019705;28;20291;-60
2022/03/18 05:58:24;;;;;;;9.50;5.47;;;;;;;6.24;100.00;102255.66;5018917;28;20250;-58
2022/03/18 06:00:49;;;;;;;9.47;5.57;;;;;;;6.27;100.00;102260.91;5021261;28;20224;-59
2022/03/18 06:03:15;;;;;;;8.83;5.63;;;;;;;6.28;100.00;102259.22;5032058;28;20204;-60
2022/03/18 06:05:42;;;;;;;9.33;5.83;;;;;;;6.27;100.00;102262.59;5027177;28;20222;-58
2022/03/18 06:13:39;;;;;;;13.63;5.83;;;;;;;6.28;100.00;102272.06;5024734;28;20202;-58
2022/03/18 06:16:04;;;;;;;11.43;5.50;;;;;;;6.28;100.00;102272.06;5021992;28;20186;-59
2022/03/18 06:18:30;;;;;;;9.90;5.70;;;;;;;6.30;100.00;102270.44;5024243;28;20673;-58
2022/03/18 06:20:55;;;;;;;8.53;5.70;;;;;;;6.34;100.00;102277.47;5021450;28;20195;-59
2022/03/18 06:23:21;;;;;;;12.13;5.93;;;;;;;6.37;100.00;102280.16;5023519;28;20216;-58
2022/03/18 06:25:47;;;;;;;11.67;5.93;;;;;;;6.37;100.00;102278.47;5022031;28;20234;-58
2022/03/18 06:28:13;;;;;;;13.60;5.77;;;;;;;6.39;100.00;102281.09;5017465;28;20556;-60
2022/03/18 06:30:38;;;;;;;13.27;5.97;;;;;;;6.38;100.00;102277.66;5017676;28;20219;-58
2022/03/18 06:33:04;;;;;;;12.40;6.90;;;;;;;6.41;100.00;102287.19;5018887;28;20716;-60
2022/03/18 06:35:29;;;;;;;9.77;5.47;;;;;;;6.43;100.00;102284.69;5034825;28;20267;-58
2022/03/18 06:37:55;;;;;;;11.20;5.60;;;;;;;6.44;100.00;102287.31;5015740;28;20225;-58
2022/03/18 06:40:20;;;;;;;7.20;5.40;;;;;;;6.44;100.00;102294.13;5020759;28;20188;-59
2022/03/18 06:42:46;;;;;;;10.53;5.63;;;;;;;6.46;100.00;102298.53;5029078;28;20208;-59
2022/03/18 06:45:11;;;;;;;8.60;5.70;;;;;;;6.50;100.00;102291.81;5030895;28;20192;-58
2022/03/18 06:47:37;;;;;;;9.77;6.10;;;;;;;6.59;100.00;102301.59;5016770;28;20197;-58
2022/03/18 06:50:02;;;;;;;7.13;4.90;;;;;;;6.64;100.00;102297.53;5023424;28;20185;-58
2022/03/18 06:52:28;;;;;;;12.17;5.93;;;;;;;6.63;100.00;102317.22;5021665;28;20235;-58
2022/03/18 06:54:53;;;;;;;11.37;6.40;;;;;;;6.68;100.00;102305.41;5025948;28;20710;-59
2022/03/18 06:57:19;;;;;;;11.83;5.87;;;;;;;6.66;100.00;102307.06;5020335;28;20241;-59
2022/03/18 06:59:45;;;;;;;10.33;6.33;;;;;;;6.68;100.00;102314.81;5021275;28;20224;-59
2022/03/18 07:02:10;;;;;;;12.70;6.40;;;;;;;6.67;100.00;102308.81;5021150;28;20212;-57
2022/03/18 07:04:36;;;;;;;14.73;6.90;;;;;;;6.69;100.00;102309.75;5028621;28;20625;-58
2022/03/18 07:07:01;;;;;;;12.23;6.53;;;;;;;6.77;100.00;102309.16;5026148;28;20210;-59
2022/03/18 07:09:27;;;;;;;10.03;5.90;;;;;;;6.80;100.00;102310.19;5027602;28;20239;-58
2022/03/18 07:11:55;;;;;;;9.33;6.40;;;;;;;6.89;100.00;102317.34;5029062;28;20177;-60
2022/03/18 07:14:20;;;;;;;11.97;6.57;;;;;;;6.93;100.00;102313.22;5030152;28;20205;-57
2022/03/18 07:19:29;;;;;;;9.90;6.43;;;;;;;6.99;100.00;102314.34;5025989;28;20311;-60
2022/03/18 07:21:54;;;;;;;7.53;5.90;;;;;;;7.06;100.00;102319.72;5031929;28;20287;-58
2022/03/18 07:24:20;;;;;;;11.43;6.23;;;;;;;7.08;100.00;102324.13;5038995;28;20175;-59
2022/03/18 07:26:45;;;;;;;8.20;6.07;;;;;;;7.17;100.00;102328.75;5028929;28;20550;-58
2022/03/18 07:29:11;;;;;;;12.00;7.00;;;;;;;7.12;100.00;102320.81;5033224;28;20238;-58
2022/03/18 07:31:36;;;;;;;9.07;7.27;;;;;;;7.13;100.00;102324.28;5029733;28;20215;-58
2022/03/18 07:34:01;;;;;;;14.00;7.40;;;;;;;7.13;100.00;102326.88;5034173;28;20222;-58
2022/03/18 07:36:27;;;;;;;11.73;7.30;;;;;;;7.12;100.00;102330.25;5028502;28;20219;-58
2022/03/18 07:38:52;;;;;;;11.97;6.87;;;;;;;7.11;100.00;102329.34;5032301;28;20248;-59
2022/03/18 07:41:18;;;;;;;12.53;7.17;;;;;;;7.11;100.00;102339.66;5029354;28;20231;-58
2022/03/18 07:43:43;;;;;;;12.63;6.97;;;;;;;7.08;100.00;102324.13;5031417;28;20211;-58
2022/03/18 07:46:09;;;;;;;10.73;7.03;;;;;;;7.09;100.00;102341.31;5032391;28;20241;-59
2022/03/18 07:48:36;;;;;;;13.47;7.57;;;;;;;7.07;100.00;102340.38;5024879;28;20235;-59
2022/03/18 07:51:01;;;;;;;10.90;7.30;;;;;;;7.11;100.00;102343.94;5023969;28;20212;-57
2022/03/18 07:53:26;;;;;;;8.93;7.87;;;;;;;7.05;100.00;102344.59;5022183;28;20590;-59
2022/03/18 07:55:52;;;;;;;10.87;7.63;;;;;;;7.08;100.00;102349.88;5022960;28;20192;-59
2022/03/18 07:58:17;;;;;;;11.63;7.53;;;;;;;7.10;100.00;102357.63;5019149;28;20208;-60
2022/03/18 08:00:43;;;;;;;11.73;7.90;;;;;;;7.12;100.00;102356.00;5024671;28;20649;-59
2022/03/18 08:03:09;;;;;;;10.77;7.10;;;;;;;7.12;100.00;102349.13;5023789;28;20717;-59
2022/03/18 08:05:35;;;;;;;12.00;7.70;;;;;;;7.25;100.00;102353.06;5026349;28;20373;-60
2022/03/18 08:08:00;;;;;;;11.70;7.03;;;;;;;7.36;100.00;102362.91;5024173;28;20203;-59
2022/03/18 08:10:26;;;;;;;10.47;7.50;;;;;;;7.40;100.00;102362.19;5023507;28;20667;-59
2022/03/18 08:12:52;;;;;;;11.60;7.27;;;;;;;7.43;100.00;102372.63;5026548;28;20181;-59
2022/03/18 08:15:19;;;;;;;10.67;6.97;;;;;;;7.33;100.00;102369.69;5019129;28;20222;-59
2022/03/18 08:17:45;;;;;;;13.03;7.43;;;;;;;7.33;100.00;102374.84;5018187;28;20192;-59
2022/03/18 08:20:13;;;;;;;11.80;6.93;;;;;;;7.30;100.00;102358.41;5020646;28;20188;-59
2022/03/18 08:22:40;;;;;;;13.27;7.27;;;;;;;7.29;100.00;102362.69;5020948;28;20216;-59
2022/03/18 08:25:07;;;;;;;11.90;7.07;;;;;;;7.30;100.00;102366.13;5020897;28;20220;-61
2022/03/18 08:27:32;;;;;;;10.20;7.53;;;;;;;7.37;100.00;102369.81;5017081;28;20615;-58
2022/03/18 08:30:04;;;;;;;14.63;7.33;;;;;;;7.35;100.00;102377.50;5021607;28;20195;-58
2022/03/18 08:32:30;;;;;;;10.70;7.10;;;;;;;7.37;100.00;102385.25;5020028;28;20278;-59
2022/03/18 08:34:56;;;;;;;14.83;7.63;;;;;;;7.33;100.00;102379.13;5018862;28;20263;-59
2022/03/18 08:40:07;;;;;;;10.67;7.20;;;;;;;7.43;100.00;102363.19;5021760;28;20297;-58
2022/03/18 08:42:32;;;;;;;11.97;6.83;;;;;;;7.53;100.00;102374.72;5036983;28;20232;-59
2022/03/18 08:44:58;;;;;;;12.40;7.70;;;;;;;7.50;99.58;102369.44;5031833;28;20195;-59
2022/03/18 08:47:24;;;;;;;11.87;7.37;;;;;;;7.63;100.00;102387.16;5018164;28;20745;-58
2022/03/18 08:49:50;;;;;;;11.63;8.27;;;;;;;7.62;99.24;102377.66;5019467;28;20231;-59
2022/03/18 08:52:16;;;;;;;12.33;7.60;;;;;;;7.72;99.51;102375.41;5020220;28;20200;-59
2022/03/18 08:54:41;;;;;;;10.70;7.50;;;;;;;7.81;98.39;102383.47;5018236;28;20196;-58
2022/03/18 08:57:07;;;;;;;11.57;7.63;;;;;;;7.83;98.44;102386.97;5019755;28;20200;-59
2022/03/18 08:59:32;;;;;;;10.83;8.00;;;;;;;7.82;98.35;102386.94;5018957;28;20208;-60
2022/03/18 09:01:57;;;;;;;10.93;7.83;;;;;;;7.90;98.21;102382.91;5020323;28;20222;-59
2022/03/18 09:04:24;;;;;;;10.20;7.80;;;;;;;7.92;97.67;102384.75;5020061;28;20471;-60
2022/03/18 09:06:49;;;;;;;11.67;7.73;;;;;;;8.08;97.67;102383.56;5018458;28;20651;-60
2022/03/18 09:09:15;;;;;;;11.53;8.13;;;;;;;8.08;97.91;102382.72;5020764;28;20211;-60
2022/03/18 09:11:41;;;;;;;10.77;7.90;;;;;;;8.14;97.32;102385.50;5015794;28;20539;-57
2022/03/18 09:14:07;;;;;;;15.63;8.27;;;;;;;8.25;97.29;102380.72;5023536;28;20191;-59
2022/03/18 09:16:36;;;;;;;13.13;7.97;;;;;;;8.26;97.48;102390.19;5020756;28;20917;-60
2022/03/18 09:19:02;;;;;;;11.30;8.00;;;;;;;8.32;98.08;102389.53;5024057;28;20222;-58
2022/03/18 09:21:28;;;;;;;12.00;8.00;;;;;;;8.33;98.28;102399.03;5033249;28;20195;-60
2022/03/18 09:23:53;;;;;;;13.23;8.87;;;;;;;8.25;98.26;102401.34;5027637;28;20617;-58
2022/03/18 09:26:18;;;;;;;13.20;9.07;;;;;;;8.26;98.03;102404.78;5024323;28;20205;-58
2022/03/18 09:28:44;;;;;;;14.53;9.10;;;;;;;8.28;98.07;102393.72;5024768;28;20669;-58
2022/03/18 09:31:10;;;;;;;13.00;8.97;;;;;;;8.40;97.94;102398.41;5023115;28;20668;-58
2022/03/18 09:33:35;;;;;;;14.07;9.23;;;;;;;8.42;97.37;102401.91;5023396;28;20180;-58
2022/03/18 09:36:00;;;;;;;12.80;9.67;;;;;;;8.50;97.17;102395.34;5020541;28;20259;-56
2022/03/18 09:38:26;;;;;;;12.87;9.43;;;;;;;8.71;96.94;102386.53;5023261;28;20258;-58
2022/03/18 09:40:51;;;;;;;13.03;8.93;;;;;;;8.63;96.20;102412.09;5020461;28;20256;-58
2022/03/18 09:43:17;;;;;;;12.50;9.83;;;;;;;8.81;96.98;102387.72;5024674;28;20223;-57
2022/03/18 09:45:43;;;;;;;13.10;9.87;;;;;;;8.85;96.31;102393.03;5024504;28;20655;-56
2022/03/18 09:48:10;;;;;;;13.73;9.47;;;;;;;8.96;96.23;102397.69;5025083;28;20222;-56
2022/03/18 09:50:36;;;;;;;18.03;11.00;;;;;;;8.91;95.79;102396.66;5021370;28;20263;-57
2022/03/18 09:53:03;;;;;;;12.53;9.73;;;;;;;9.08;95.80;102410.97;5019999;28;20191;-58
2022/03/18 09:55:30;;;;;;;14.23;10.07;;;;;;;9.03;94.96;102391.00;5021823;28;20187;-58
2022/03/18 09:57:56;;;;;;;16.77;10.67;;;;;;;9.07;95.68;102416.09;5016043;28;20264;-57
2022/03/18 10:00:21;;;;;;;14.47;9.93;;;;;;;8.99;95.60;102398.66;5025849;28;20191;-57
2022/03/18 10:03:18;;;;;;;11.57;9.77;;;;;;;8.99;95.92;102401.22;5026078;28;20219;-58
2022/03/18 10:06:11;;;;;;;12.90;9.97;;;;;;;9.19;95.63;102389.75;5024426;28;20210;-56
2022/03/18 10:08:39;;;;;;;12.83;10.80;;;;;;;9.36;95.20;102398.91;5019628;28;20679;-57
2022/03/18 10:11:14;;;;;;;15.07;10.87;;;;;;;9.48;94.61;102403.56;5029048;28;20241;-56
2022/03/18 10:13:52;;;;;;;14.93;10.70;;;;;;;9.59;94.87;102394.41;5018045;28;20202;-56
2022/03/18 10:16:42;;;;;;;20.63;14.10;;;;;;;9.83;93.65;102395.06;5022454;28;20192;-57
2022/03/18 10:19:11;;;;;;;23.30;17.70;;;;;;;9.95;93.00;102392.81;5019152;28;20223;-57
2022/03/18 10:21:55;;;;;;;21.77;19.30;;;;;;;10.14;92.20;102393.31;5023967;28;20326;-58
2022/03/18 10:24:30;;;;;;;20.43;16.87;;;;;;;10.21;91.76;102396.13;5017839;28;20581;-57
2022/03/18 10:27:16;;;;;;;21.63;17.50;;;;;;;10.14;91.11;102395.91;5017405;28;20269;-59
2022/03/18 10:29:43;;;;;;;21.13;17.00;;;;;;;10.14;91.59;102401.09;5020813;28;20220;-59
2022/03/18 10:32:10;;;;;;;21.63;17.03;;;;;;;10.09;91.27;102403.56;5020527;28;20184;-60
2022/03/18 10:37:21;;;;;;;20.80;17.77;;;;;;;10.30;91.86;102403.25;5020817;28;20198;-57
2022/03/18 10:39:50;;;;;;;21.50;18.37;;;;;;;10.41;91.16;102394.91;5022653;28;20268;-55
2022/03/18 10:42:18;;;;;;;20.63;18.03;;;;;;;10.49;90.58;102396.00;5019968;28;20199;-57
2022/03/18 10:44:45;;;;;;;24.97;18.70;;;;;;;10.54;89.76;102406.47;5019345;28;20201;-57
2022/03/18 10:47:27;;;;;;;23.47;19.53;;;;;;;10.41;89.89;102394.91;5019550;28;20237;-58
2022/03/18 10:50:11;;;;;;;22.00;18.70;;;;;;;10.62;90.84;102398.06;5018059;28;20635;-58
2022/03/18 10:52:39;;;;;;;21.80;18.57;;;;;;;10.72;91.13;102400.84;5019701;28;20188;-58
2022/03/18 10:55:36;;;;;;;20.20;18.10;;;;;;;10.67;90.06;102405.94;5014570;28;20193;-56
2022/03/18 10:58:18;;;;;;;21.23;18.93;;;;;;;10.49;89.78;102402.03;5011502;28;20721;-56
2022/03/18 11:00:50;;;;;;;22.33;19.40;;;;;;;10.30;89.46;102395.50;5021209;28;21031;-57
2022/03/18 11:03:16;;;;;;;25.80;21.53;;;;;;;10.35;89.65;102440.50;5020367;28;20211;-57
2022/03/18 11:05:41;;;;;;;24.03;21.43;;;;;;;10.51;89.47;102417.63;5023592;28;20192;-57
2022/03/18 11:08:11;;;;;;;24.37;21.63;;;;;;;10.81;89.71;102416.63;5024090;28;20200;-58
2022/03/18 11:13:28;;;;;;;27.73;21.30;;;;;;;10.94;87.62;102395.38;5023271;28;20192;-57
2022/03/18 11:15:54;;;;;;;24.17;19.97;;;;;;;11.09;87.97;102402.59;5022057;28;20218;-56
2022/03/18 11:18:21;;;;;;;23.87;21.33;;;;;;;11.51;86.66;102400.03;5023824;28;20219;-58
2022/03/18 11:20:50;;;;;;;23.87;21.40;;;;;;;11.70;85.98;102417.75;5018909;28;20184;-57
2022/03/18 11:23:22;;;;;;;25.63;22.83;;;;;;;11.59;85.51;102429.63;5024638;28;20625;-56
2022/03/18 11:26:03;;;;;;;29.27;24.53;;;;;;;11.43;85.35;102415.44;5018989;28;20660;-59
2022/03/18 11:28:30;;;;;;;27.53;24.57;;;;;;;11.62;85.95;102408.94;5037966;28;20617;-57
2022/03/18 11:31:06;;;;;;;28.50;25.40;;;;;;;11.64;84.82;102406.38;5020514;28;20630;-57
2022/03/18 11:33:33;;;;;;;28.00;25.00;;;;;;;11.31;84.92;102404.81;5021972;28;20648;-58
2022/03/18 11:36:14;;;;;;;28.00;25.00;;;;;;;11.35;86.05;102393.66;5017013;28;20194;-58
2022/03/18 11:38:57;;;;;;;29.20;25.17;;;;;;;11.39;85.46;102395.50;5013766;28;20265;-58
2022/03/18 11:41:43;;;;;;;33.03;27.57;;;;;;;11.41;85.79;102397.25;5013924;28;20596;-59
2022/03/18 11:44:08;;;;;;;28.30;25.37;;;;;;;11.34;86.14;102387.63;5021442;28;20183;-56
2022/03/18 11:46:34;;;;;;;29.57;26.33;;;;;;;11.33;85.15;102378.09;5013379;28;20193;-56
2022/03/18 11:49:05;;;;;;;32.47;27.20;;;;;;;11.28;84.99;102387.47;5021290;28;20222;-56
2022/03/18 11:51:35;;;;;;;31.87;28.47;;;;;;;11.10;84.72;102370.66;5024844;28;20674;-57